createdAt,value
2023-06-26T00:01:53.568Z,15.27
2023-06-26T00:04:25.635Z,15.15
2023-06-26T00:06:57.781Z,15.10
2023-06-26T00:09:30.047Z,15.10
2023-06-26T00:12:02.221Z,15.06
2023-06-26T00:14:34.323Z,15.00
2023-06-26T00:17:06.653Z,15.07
2023-06-26T00:19:38.718Z,15.13
2023-06-26T00:22:10.920Z,15.15
2023-06-26T00:24:43.039Z,15.15
2023-06-26T00:27:15.324Z,15.16
2023-06-26T00:29:47.442Z,15.14
2023-06-26T00:32:19.518Z,15.11
2023-06-26T00:34:51.654Z,15.06
2023-06-26T00:37:24.319Z,15.00
2023-06-26T00:39:56.400Z,14.92
2023-06-26T00:42:28.989Z,14.86
2023-06-26T00:45:01.027Z,14.82
2023-06-26T00:47:33.845Z,14.77
2023-06-26T00:50:06.883Z,14.75
2023-06-26T00:52:39.788Z,14.77
2023-06-26T00:55:12.953Z,14.72
2023-06-26T00:57:47.073Z,14.69
2023-06-26T01:00:20.484Z,14.71
2023-06-26T01:02:52.976Z,14.72
2023-06-26T01:05:26.148Z,14.76
2023-06-26T01:07:59.394Z,14.80
2023-06-26T01:10:31.624Z,14.79
2023-06-26T01:13:03.757Z,14.75
2023-06-26T01:15:36.160Z,14.72
2023-06-26T01:18:09.269Z,14.68
2023-06-26T01:20:43.853Z,14.60
2023-06-26T01:23:24.646Z,14.47
2023-06-26T01:26:12.745Z,14.49
2023-06-26T01:28:44.582Z,14.47
2023-06-26T01:31:17.638Z,14.44
2023-06-26T01:33:51.964Z,14.44
2023-06-26T01:36:26.066Z,14.38
2023-06-26T01:38:58.247Z,14.43
2023-06-26T01:41:30.465Z,14.53
2023-06-26T01:44:12.037Z,14.60
2023-06-26T01:46:57.442Z,14.65
2023-06-26T01:49:38.455Z,14.67
2023-06-26T01:52:19.238Z,14.73
2023-06-26T01:54:59.175Z,14.74
2023-06-26T01:57:34.325Z,14.77
2023-06-26T02:00:11.369Z,14.78
2023-06-26T02:02:46.457Z,14.79
2023-06-26T02:05:19.702Z,14.80
2023-06-26T02:07:52.480Z,14.76
2023-06-26T02:10:24.679Z,14.72
2023-06-26T02:12:56.826Z,14.70
2023-06-26T02:15:29.130Z,14.63
2023-06-26T02:18:01.368Z,14.61
2023-06-26T02:20:34.568Z,14.56
2023-06-26T02:23:06.758Z,14.53
2023-06-26T02:25:39.457Z,14.48
2023-06-26T02:28:11.855Z,14.38
2023-06-26T02:30:44.145Z,14.26
2023-06-26T02:33:16.805Z,14.19
2023-06-26T02:35:49.029Z,14.24
2023-06-26T02:38:21.575Z,14.27
2023-06-26T02:40:53.970Z,14.26
2023-06-26T02:43:26.629Z,14.22
2023-06-26T02:45:58.769Z,14.22
2023-06-26T02:48:30.922Z,14.26
2023-06-26T02:51:03.050Z,14.25
2023-06-26T02:53:37.432Z,14.19
2023-06-26T02:56:10.914Z,14.16
2023-06-26T02:58:43.165Z,14.18
2023-06-26T03:01:17.817Z,14.27
2023-06-26T03:03:50.748Z,14.32
2023-06-26T03:06:23.350Z,14.26
2023-06-26T03:08:55.950Z,14.29
2023-06-26T03:11:28.088Z,14.31
2023-06-26T03:14:01.158Z,14.35
2023-06-26T03:16:33.678Z,14.31
2023-06-26T03:19:05.828Z,14.31
2023-06-26T03:21:43.665Z,14.33
2023-06-26T03:24:15.792Z,14.34
2023-06-26T03:26:48.034Z,14.39
2023-06-26T03:29:20.168Z,14.41
2023-06-26T03:31:52.492Z,14.41
2023-06-26T03:34:25.301Z,14.39
2023-06-26T03:36:57.420Z,14.32
2023-06-26T03:39:29.633Z,14.32
2023-06-26T03:42:02.855Z,14.37
2023-06-26T03:44:35.192Z,14.40
2023-06-26T03:47:07.730Z,14.38
2023-06-26T03:49:41.448Z,14.32
2023-06-26T03:52:13.545Z,14.30
2023-06-26T03:54:45.818Z,14.28
2023-06-26T03:57:18.062Z,14.33
2023-06-26T03:59:52.984Z,14.28
2023-06-26T04:02:25.322Z,14.22
2023-06-26T04:04:57.577Z,14.20
2023-06-26T04:07:31.272Z,14.23
2023-06-26T04:10:05.129Z,14.23
2023-06-26T04:12:37.411Z,14.23
2023-06-26T04:15:11.480Z,14.26
2023-06-26T04:17:43.558Z,14.27
2023-06-26T04:20:16.474Z,14.36
2023-06-26T04:22:48.660Z,14.46
2023-06-26T04:25:20.921Z,14.50
2023-06-26T04:27:53.038Z,14.53
2023-06-26T04:30:25.220Z,14.60
2023-06-26T04:33:00.262Z,14.70
2023-06-26T04:35:32.428Z,14.79
2023-06-26T04:38:04.660Z,14.84
2023-06-26T04:40:37.016Z,14.92
2023-06-26T04:43:09.496Z,15.00
2023-06-26T04:45:41.907Z,15.06
2023-06-26T04:48:14.072Z,15.14
2023-06-26T04:50:55.158Z,15.22
2023-06-26T04:53:28.026Z,15.31
2023-06-26T04:56:00.299Z,15.38
2023-06-26T04:58:32.521Z,15.51
2023-06-26T05:01:08.191Z,15.62
2023-06-26T05:03:40.534Z,15.74
2023-06-26T05:06:12.881Z,15.85
2023-06-26T05:08:45.008Z,15.96
2023-06-26T05:11:17.227Z,16.06
2023-06-26T05:13:49.311Z,16.18
2023-06-26T05:16:21.554Z,16.34
2023-06-26T05:18:55.519Z,16.49
2023-06-26T05:21:28.058Z,16.63
2023-06-26T05:24:01.190Z,16.73
2023-06-26T05:26:34.523Z,16.84
2023-06-26T05:29:07.598Z,16.97
2023-06-26T05:31:44.010Z,17.06
2023-06-26T05:34:17.636Z,17.19
2023-06-26T05:36:52.807Z,17.31
2023-06-26T05:39:26.101Z,17.42
2023-06-26T05:41:59.358Z,17.59
2023-06-26T05:44:31.445Z,17.78
2023-06-26T05:47:03.653Z,17.97
2023-06-26T05:49:35.894Z,18.16
2023-06-26T05:52:10.228Z,18.34
2023-06-26T05:54:43.322Z,18.50
2023-06-26T05:57:17.706Z,18.64
2023-06-26T05:59:51.204Z,18.81
2023-06-26T06:02:23.673Z,18.98
2023-06-26T06:04:56.006Z,19.14
2023-06-26T06:07:28.318Z,19.35
2023-06-26T06:10:00.983Z,19.50
2023-06-26T06:12:33.177Z,19.62
2023-06-26T06:15:05.336Z,19.72
2023-06-26T06:17:37.670Z,19.83
2023-06-26T06:20:10.876Z,20.00
2023-06-26T06:22:42.955Z,20.19
2023-06-26T06:25:15.236Z,20.38
2023-06-26T06:27:48.577Z,20.58
2023-06-26T06:30:35.171Z,20.81
2023-06-26T06:33:12.926Z,20.99
2023-06-26T06:35:45.683Z,21.07
2023-06-26T06:38:18.163Z,21.16
2023-06-26T06:40:50.525Z,21.22
2023-06-26T06:43:22.716Z,21.31
2023-06-26T06:45:55.196Z,21.38
2023-06-26T06:48:28.353Z,21.53
2023-06-26T06:51:00.565Z,21.74
2023-06-26T06:53:33.203Z,21.97
2023-06-26T06:56:05.734Z,22.06
2023-06-26T06:58:38.017Z,22.13
2023-06-26T07:01:10.614Z,22.24
2023-06-26T07:03:43.077Z,22.44
2023-06-26T07:06:15.779Z,22.66
2023-06-26T07:08:47.851Z,22.82
2023-06-26T07:11:20.223Z,22.95
2023-06-26T07:13:52.910Z,23.09
2023-06-26T07:16:25.029Z,23.21
2023-06-26T07:18:57.173Z,23.25
2023-06-26T07:21:29.234Z,23.25
2023-06-26T07:24:01.300Z,23.29
2023-06-26T07:26:44.405Z,23.39
2023-06-26T07:29:18.068Z,23.55
2023-06-26T07:31:50.395Z,23.70
2023-06-26T07:34:22.610Z,23.84
2023-06-26T07:36:55.284Z,23.95
2023-06-26T07:39:27.451Z,24.04
2023-06-26T07:42:01.021Z,24.15
2023-06-26T07:44:33.128Z,24.31
2023-06-26T07:47:05.688Z,24.52
2023-06-26T07:49:38.016Z,24.74
2023-06-26T07:52:11.750Z,25.00
2023-06-26T07:54:43.845Z,25.18
2023-06-26T07:57:16.264Z,25.35
2023-06-26T07:59:49.102Z,25.54
2023-06-26T08:02:21.230Z,25.66
2023-06-26T08:04:53.658Z,25.78
2023-06-26T08:07:25.945Z,25.93
2023-06-26T08:09:58.417Z,26.07
2023-06-26T08:12:30.601Z,26.20
2023-06-26T08:15:04.164Z,26.39
2023-06-26T08:17:37.096Z,26.48
2023-06-26T08:20:12.058Z,26.69
2023-06-26T08:22:45.810Z,26.83
2023-06-26T08:25:18.229Z,26.93
2023-06-26T08:27:53.959Z,27.10
2023-06-26T08:30:29.334Z,27.16
2023-06-26T08:33:02.081Z,27.14
2023-06-26T08:35:34.425Z,27.21
2023-06-26T08:38:06.549Z,27.16
2023-06-26T08:40:40.021Z,27.27
2023-06-26T08:43:12.482Z,27.33
2023-06-26T08:45:44.816Z,27.29
2023-06-26T08:48:17.269Z,27.22
2023-06-26T08:50:51.591Z,27.28
2023-06-26T08:53:31.581Z,27.40
2023-06-26T08:56:05.335Z,27.67
2023-06-26T08:58:40.050Z,27.85
2023-06-26T09:01:15.194Z,28.02
2023-06-26T09:03:47.696Z,28.08
2023-06-26T09:06:20.360Z,27.93
2023-06-26T09:08:52.682Z,27.91
2023-06-26T09:11:26.800Z,27.85
2023-06-26T09:13:59.758Z,27.89
2023-06-26T09:16:31.992Z,27.82
2023-06-26T09:19:04.234Z,27.63
2023-06-26T09:21:36.405Z,27.61
2023-06-26T09:24:11.756Z,27.74
2023-06-26T09:26:44.618Z,27.92
2023-06-26T09:29:17.853Z,28.09
2023-06-26T09:31:50.236Z,28.20
2023-06-26T09:34:23.147Z,28.50
2023-06-26T09:36:57.859Z,28.80
2023-06-26T09:39:32.524Z,28.89
2023-06-26T09:42:07.482Z,28.90
2023-06-26T09:44:45.631Z,28.88
2023-06-26T09:47:23.331Z,28.95
2023-06-26T09:49:56.326Z,28.99
2023-06-26T09:52:30.908Z,29.05
2023-06-26T09:55:16.765Z,29.14
2023-06-26T09:57:50.256Z,29.25
2023-06-26T10:00:23.392Z,29.23
2023-06-26T10:02:56.249Z,29.17
2023-06-26T10:05:29.247Z,29.23
2023-06-26T10:08:04.737Z,29.20
2023-06-26T10:10:39.618Z,29.35
2023-06-26T10:13:23.003Z,29.52
2023-06-26T10:15:56.232Z,29.69
2023-06-26T10:18:29.955Z,29.50
2023-06-26T10:21:05.863Z,29.29
2023-06-26T10:23:39.303Z,29.07
2023-06-26T10:26:13.848Z,29.17
2023-06-26T10:28:49.943Z,29.47
2023-06-26T10:31:25.475Z,29.85
2023-06-26T10:33:58.693Z,30.36
2023-06-26T10:36:34.128Z,30.80
2023-06-26T10:39:09.004Z,31.14
2023-06-26T10:41:53.103Z,31.27
2023-06-26T10:44:45.136Z,31.45
2023-06-26T10:47:33.684Z,31.48
2023-06-26T10:50:25.381Z,31.57
2023-06-26T10:53:26.627Z,31.75
2023-06-26T10:56:06.415Z,31.79
2023-06-26T10:58:49.452Z,31.92
2023-06-26T11:01:25.281Z,31.87
2023-06-26T11:04:09.489Z,32.08
2023-06-26T11:06:43.061Z,32.43
2023-06-26T11:09:20.643Z,32.44
2023-06-26T11:12:06.394Z,32.54
2023-06-26T11:14:39.565Z,32.75
2023-06-26T11:17:16.100Z,32.73
2023-06-26T11:19:49.550Z,32.85
2023-06-26T11:22:22.837Z,32.88
2023-06-26T11:24:57.306Z,32.96
2023-06-26T11:27:35.475Z,32.98
2023-06-26T11:30:09.596Z,32.84
2023-06-26T11:32:42.608Z,32.99
2023-06-26T11:35:14.892Z,32.97
2023-06-26T11:37:47.105Z,33.07
2023-06-26T11:40:28.038Z,33.12
2023-06-26T11:43:03.006Z,33.32
2023-06-26T11:45:36.929Z,33.58
2023-06-26T11:48:09.885Z,33.82
2023-06-26T11:50:44.150Z,33.88
2023-06-26T11:53:19.306Z,33.94
2023-06-26T11:55:52.061Z,33.77
2023-06-26T11:58:24.223Z,33.95
2023-06-26T12:00:57.124Z,33.85
2023-06-26T12:03:29.522Z,33.81
2023-06-26T12:06:04.793Z,34.02
2023-06-26T12:08:37.399Z,34.15
2023-06-26T12:11:09.895Z,34.35
2023-06-26T12:13:46.155Z,34.31
2023-06-26T12:16:20.879Z,34.35
2023-06-26T12:18:53.446Z,34.23
2023-06-26T12:21:53.746Z,34.35
2023-06-26T12:24:27.149Z,34.59
2023-06-26T12:26:59.495Z,34.77
2023-06-26T12:29:36.541Z,34.67
2023-06-26T12:32:13.083Z,34.89
2023-06-26T12:34:49.294Z,35.50
2023-06-26T12:37:21.594Z,35.74
2023-06-26T12:39:55.140Z,35.63
2023-06-26T12:42:28.897Z,35.53
2023-06-26T12:45:01.273Z,35.48
2023-06-26T12:47:34.942Z,35.53
2023-06-26T12:50:10.321Z,35.38
2023-06-26T12:52:42.486Z,35.26
2023-06-26T12:55:14.825Z,35.25
2023-06-26T12:57:47.439Z,35.48
2023-06-26T13:00:21.409Z,35.53
2023-06-26T13:02:53.686Z,35.63
2023-06-26T13:05:26.830Z,35.50
2023-06-26T13:07:59.955Z,35.64
2023-06-26T13:10:32.125Z,35.59
2023-06-26T13:13:04.697Z,35.63
2023-06-26T13:15:36.874Z,35.64
2023-06-26T13:18:09.126Z,35.47
2023-06-26T13:20:41.602Z,35.47
2023-06-26T13:23:14.084Z,35.49
2023-06-26T13:25:46.168Z,35.65
2023-06-26T13:28:18.476Z,35.49
2023-06-26T13:30:51.288Z,35.65
2023-06-26T13:33:26.794Z,35.87
2023-06-26T13:35:59.090Z,35.92
2023-06-26T13:38:31.201Z,35.86
2023-06-26T13:41:04.081Z,35.90
2023-06-26T13:43:36.318Z,35.76
2023-06-26T13:46:09.242Z,36.04
2023-06-26T13:48:41.483Z,36.07
2023-06-26T13:51:13.998Z,36.15
2023-06-26T13:53:46.357Z,36.16
2023-06-26T13:56:18.604Z,36.37
2023-06-26T13:58:51.156Z,36.50
2023-06-26T14:01:24.682Z,36.49
2023-06-26T14:03:56.928Z,36.56
2023-06-26T14:06:29.113Z,36.72
2023-06-26T14:09:01.795Z,37.02
2023-06-26T14:11:35.130Z,37.16
2023-06-26T14:14:07.410Z,37.10
2023-06-26T14:16:41.618Z,37.18
2023-06-26T14:19:15.785Z,37.14
2023-06-26T14:21:48.006Z,36.99
2023-06-26T14:24:20.426Z,36.67
2023-06-26T14:26:52.595Z,36.73
2023-06-26T14:29:24.671Z,36.77
2023-06-26T14:31:56.955Z,36.77
2023-06-26T14:34:29.235Z,36.74
2023-06-26T14:37:02.150Z,36.61
2023-06-26T14:39:34.238Z,36.55
2023-06-26T14:42:07.918Z,36.60
2023-06-26T14:44:40.728Z,36.53
2023-06-26T14:47:13.322Z,36.52
2023-06-26T14:49:45.692Z,36.40
2023-06-26T14:52:17.909Z,36.21
2023-06-26T14:54:50.024Z,36.32
2023-06-26T14:57:22.227Z,36.39
2023-06-26T14:59:54.356Z,36.20
2023-06-26T15:02:26.546Z,36.42
2023-06-26T15:04:58.871Z,36.36
2023-06-26T15:07:31.254Z,36.12
2023-06-26T15:10:03.579Z,35.53
2023-06-26T15:12:35.709Z,35.30
2023-06-26T15:15:09.671Z,35.32
2023-06-26T15:17:42.021Z,35.19
2023-06-26T15:20:14.568Z,35.26
2023-06-26T15:22:46.768Z,35.05
2023-06-26T15:25:19.012Z,35.05
2023-06-26T15:27:51.508Z,35.12
2023-06-26T15:30:23.695Z,35.03
2023-06-26T15:32:55.976Z,34.82
2023-06-26T15:35:29.630Z,34.75
2023-06-26T15:38:01.833Z,34.71
2023-06-26T15:40:34.167Z,34.45
2023-06-26T15:43:06.305Z,34.21
2023-06-26T15:45:38.482Z,34.04
2023-06-26T15:48:11.347Z,33.81
2023-06-26T15:50:43.581Z,33.54
2023-06-26T15:53:19.975Z,33.27
2023-06-26T15:55:52.120Z,33.01
2023-06-26T15:58:24.210Z,32.65
2023-06-26T16:00:56.608Z,32.29
2023-06-26T16:03:28.775Z,32.08
2023-06-26T16:06:00.915Z,31.85
2023-06-26T16:08:33.002Z,31.62
2023-06-26T16:11:06.577Z,31.24
2023-06-26T16:13:38.789Z,30.95
2023-06-26T16:16:12.624Z,30.72
2023-06-26T16:18:44.788Z,30.40
2023-06-26T16:21:17.392Z,30.20
2023-06-26T16:23:49.478Z,29.98
2023-06-26T16:26:21.562Z,29.79
2023-06-26T16:28:54.043Z,29.59
2023-06-26T16:31:26.837Z,29.37
2023-06-26T16:33:59.373Z,29.14
2023-06-26T16:36:31.581Z,28.96
2023-06-26T16:39:04.057Z,28.82
2023-06-26T16:41:36.147Z,28.69
2023-06-26T16:44:08.404Z,28.54
2023-06-26T16:46:40.623Z,28.41
2023-06-26T16:49:12.779Z,28.27
2023-06-26T16:51:45.109Z,28.12
2023-06-26T16:54:17.215Z,27.97
2023-06-26T16:56:49.368Z,27.87
2023-06-26T16:59:21.672Z,27.80
2023-06-26T17:01:55.182Z,27.72
2023-06-26T17:04:27.532Z,27.60
2023-06-26T17:07:00.681Z,27.48
2023-06-26T17:09:32.940Z,27.41
2023-06-26T17:12:05.527Z,27.33
2023-06-26T17:14:37.651Z,27.22
2023-06-26T17:17:09.906Z,27.17
2023-06-26T17:19:42.037Z,27.13
2023-06-26T17:22:14.321Z,27.07
2023-06-26T17:24:46.425Z,27.05
2023-06-26T17:27:22.116Z,27.01
2023-06-26T17:29:54.165Z,26.95
2023-06-26T17:32:26.576Z,26.91
2023-06-26T17:34:58.780Z,26.88
2023-06-26T17:37:30.890Z,26.81
2023-06-26T17:40:05.379Z,26.71
2023-06-26T17:42:43.520Z,26.62
2023-06-26T17:45:16.647Z,26.55
2023-06-26T17:47:48.943Z,26.48
2023-06-26T17:50:21.394Z,26.41
2023-06-26T17:52:53.690Z,26.33
2023-06-26T17:55:26.013Z,26.28
2023-06-26T17:57:58.104Z,26.19
2023-06-26T18:00:30.951Z,26.13
2023-06-26T18:03:03.799Z,26.05
2023-06-26T18:05:36.322Z,26.00
2023-06-26T18:08:08.606Z,25.93
2023-06-26T18:10:40.939Z,25.86
2023-06-26T18:13:13.349Z,25.75
2023-06-26T18:15:45.697Z,25.67
2023-06-26T18:18:18.056Z,25.54
2023-06-26T18:20:50.318Z,25.45
2023-06-26T18:23:22.456Z,25.33
2023-06-26T18:25:54.540Z,25.21
2023-06-26T18:28:28.312Z,25.10
2023-06-26T18:31:00.746Z,25.00
2023-06-26T18:33:32.942Z,24.93
2023-06-26T18:36:07.270Z,24.85
2023-06-26T18:38:39.555Z,24.77
2023-06-26T18:41:11.816Z,24.64
2023-06-26T18:43:46.731Z,24.53
2023-06-26T18:46:19.019Z,24.45
2023-06-26T18:49:01.282Z,24.37
2023-06-26T18:51:34.018Z,24.24
2023-06-26T18:54:06.503Z,24.10
2023-06-26T18:56:38.688Z,24.06
2023-06-26T18:59:11.019Z,23.96
2023-06-26T19:01:43.471Z,23.85
2023-06-26T19:04:16.296Z,23.76
2023-06-26T19:06:48.997Z,23.65
2023-06-26T19:09:21.689Z,23.54
2023-06-26T19:11:53.870Z,23.48
2023-06-26T19:14:26.272Z,23.40
2023-06-26T19:16:58.485Z,23.30
2023-06-26T19:19:30.675Z,23.19
2023-06-26T19:22:02.850Z,23.10
2023-06-26T19:24:35.081Z,23.00
2023-06-26T19:27:07.541Z,22.90
2023-06-26T19:29:39.762Z,22.79
2023-06-26T19:32:13.668Z,22.65
2023-06-26T19:34:46.006Z,22.52
2023-06-26T19:37:18.300Z,22.40
2023-06-26T19:39:50.473Z,22.26
2023-06-26T19:42:22.654Z,22.18
2023-06-26T19:44:54.868Z,22.06
2023-06-26T19:47:27.129Z,21.96
2023-06-26T19:49:59.322Z,21.86
2023-06-26T19:52:31.428Z,21.76
2023-06-26T19:55:04.609Z,21.69
2023-06-26T19:57:36.949Z,21.60
2023-06-26T20:00:11.616Z,21.56
2023-06-26T20:02:43.927Z,21.51
2023-06-26T20:05:16.255Z,21.49
2023-06-26T20:07:48.529Z,21.47
2023-06-26T20:10:20.895Z,21.43
2023-06-26T20:12:53.081Z,21.38
2023-06-26T20:15:25.201Z,21.31
2023-06-26T20:17:57.666Z,21.18
2023-06-26T20:20:29.786Z,21.10
2023-06-26T20:23:02.783Z,21.07
2023-06-26T20:25:35.239Z,21.03
2023-06-26T20:28:07.632Z,21.00
2023-06-26T20:30:39.834Z,20.96
2023-06-26T20:33:12.153Z,20.91
2023-06-26T20:35:44.394Z,20.81
2023-06-26T20:38:16.483Z,20.69
2023-06-26T20:40:49.540Z,20.63
2023-06-26T20:43:22.526Z,20.58
2023-06-26T20:45:55.698Z,20.51
2023-06-26T20:48:29.118Z,20.45
2023-06-26T20:51:02.169Z,20.40
2023-06-26T20:53:35.135Z,20.32
2023-06-26T20:56:08.588Z,20.29
2023-06-26T20:58:40.702Z,20.27
2023-06-26T21:01:12.996Z,20.22
2023-06-26T21:03:45.223Z,20.19
2023-06-26T21:06:17.364Z,20.16
2023-06-26T21:08:49.596Z,20.11
2023-06-26T21:11:22.017Z,20.06
2023-06-26T21:13:54.191Z,20.03
2023-06-26T21:16:26.368Z,19.99
2023-06-26T21:18:58.417Z,19.98
2023-06-26T21:21:30.658Z,19.92
2023-06-26T21:24:03.731Z,19.89
2023-06-26T21:26:35.853Z,19.90
2023-06-26T21:29:08.083Z,19.91
2023-06-26T21:31:40.148Z,19.92
2023-06-26T21:34:12.557Z,19.90
2023-06-26T21:36:44.697Z,19.89
2023-06-26T21:39:16.725Z,19.85
2023-06-26T21:41:48.772Z,19.81
2023-06-26T21:44:20.930Z,19.80
2023-06-26T21:46:53.160Z,19.80
2023-06-26T21:49:25.363Z,19.81
2023-06-26T21:51:57.456Z,19.84
2023-06-26T21:54:29.502Z,19.85
2023-06-26T21:57:01.576Z,19.89
2023-06-26T21:59:33.771Z,19.94
2023-06-26T22:02:06.120Z,20.02
2023-06-26T22:04:38.232Z,20.14
2023-06-26T22:07:10.570Z,20.31
2023-06-26T22:09:43.023Z,20.44
2023-06-26T22:12:15.308Z,20.49
2023-06-26T22:14:47.522Z,20.43
2023-06-26T22:17:19.729Z,20.29
2023-06-26T22:19:51.897Z,20.08
2023-06-26T22:22:24.124Z,19.84
2023-06-26T22:24:56.889Z,19.69
2023-06-26T22:27:29.021Z,19.55
2023-06-26T22:30:01.500Z,19.40
2023-06-26T22:32:33.685Z,19.30
2023-06-26T22:35:07.114Z,19.23
2023-06-26T22:37:39.291Z,19.16
2023-06-26T22:40:13.442Z,19.10
2023-06-26T22:42:45.757Z,19.06
2023-06-26T22:45:18.010Z,18.98
2023-06-26T22:47:50.352Z,18.91
2023-06-26T22:50:22.478Z,18.79
2023-06-26T22:52:55.118Z,18.69
2023-06-26T22:55:27.230Z,18.69
2023-06-26T22:57:59.272Z,18.66
2023-06-26T23:00:31.294Z,18.59
2023-06-26T23:03:03.359Z,18.53
2023-06-26T23:05:38.380Z,18.42
2023-06-26T23:08:10.906Z,18.32
2023-06-26T23:10:43.476Z,18.27
2023-06-26T23:13:15.828Z,18.25
2023-06-26T23:15:48.215Z,18.19
2023-06-26T23:18:20.416Z,18.16
2023-06-26T23:20:53.072Z,18.15
2023-06-26T23:23:26.110Z,18.12
2023-06-26T23:26:01.382Z,18.07
2023-06-26T23:28:33.663Z,18.06
2023-06-26T23:31:06.793Z,18.05
2023-06-26T23:33:41.846Z,18.02
2023-06-26T23:36:14.061Z,18.00
2023-06-26T23:38:46.439Z,18.01
2023-06-26T23:41:18.810Z,18.01
2023-06-26T23:43:51.006Z,17.98
2023-06-26T23:46:23.186Z,17.95
2023-06-26T23:48:55.661Z,17.97
2023-06-26T23:51:27.845Z,17.98
2023-06-26T23:54:00.053Z,17.93
2023-06-26T23:56:32.872Z,17.88
2023-06-26T23:59:05.565Z,17.89
